Time;durP1;ratioP1;P1;durP2;ratioP2;P2;SDS_P1;SDS_P2;PMS_P1;PMS_P2;Temp;Humidity;BMP_temperature;BMP_pressure;BME280_temperature;BME280_humidity;BME280_pressure;Samples;Min_cycle;Max_cycle;Signal;HPM_P1;HPM_P2
2023/06/22 00:00:42;;;;;;;13.13;10.30;;;;;;;;;;5075732;28;20232;-63
2023/06/22 00:03:08;;;;;;;12.93;10.37;;;;;;;;;;5075831;28;20173;-63
2023/06/22 00:05:34;;;;;;;13.82;12.27;;;;;;;;;;5073887;28;20395;-63
2023/06/22 00:08:03;;;;;;;12.43;11.10;;;;;;;;;;5076058;28;20272;-63
2023/06/22 00:10:28;;;;;;;13.17;11.20;;;;;;;;;;5075413;28;20205;-63
2023/06/22 00:12:54;;;;;;;12.43;10.00;;;;;;;;;;5076443;28;20189;-63
2023/06/22 00:15:20;;;;;;;11.60;10.40;;;;;;;;;;5075083;28;20212;-64
2023/06/22 00:17:46;;;;;;;14.17;10.80;;;;;;;;;;5074554;28;20540;-63
2023/06/22 00:20:14;;;;;;;14.40;10.80;;;;;;;;;;5074382;28;20189;-63
2023/06/22 00:22:39;;;;;;;16.27;10.73;;;;;;;;;;5074811;28;20177;-63
2023/06/22 00:25:07;;;;;;;14.27;11.00;;;;;;;;;;5074977;28;20178;-63
2023/06/22 00:27:33;;;;;;;11.47;10.00;;;;;;;;;;5075425;28;20178;-63
2023/06/22 00:29:59;;;;;;;12.43;11.13;;;;;;;;;;5075466;28;20184;-63
2023/06/22 00:32:24;;;;;;;13.53;11.50;;;;;;;;;;5074964;28;20259;-63
2023/06/22 00:34:50;;;;;;;15.17;11.00;;;;;;;;;;5074678;28;20198;-63
2023/06/22 00:37:16;;;;;;;12.57;11.27;;;;;;;;;;5075201;28;20174;-63
2023/06/22 00:39:45;;;;;;;13.53;10.97;;;;;;;;;;5056442;28;20177;-63
2023/06/22 00:42:11;;;;;;;16.03;12.07;;;;;;;;;;5074837;28;20258;-63
2023/06/22 00:44:37;;;;;;;12.83;11.53;;;;;;;;;;5075096;28;20182;-63
2023/06/22 00:47:04;;;;;;;13.63;11.37;;;;;;;;;;5074704;28;20265;-63
2023/06/22 00:49:30;;;;;;;12.60;11.10;;;;;;;;;;5078333;28;20231;-63
2023/06/22 00:51:56;;;;;;;14.10;11.00;;;;;;;;;;5078239;28;20248;-63
2023/06/22 00:54:24;;;;;;;13.13;11.53;;;;;;;;;;5078166;28;20244;-63
2023/06/22 00:56:57;;;;;;;16.57;12.53;;;;;;;;;;5077978;28;20642;-63
2023/06/22 00:59:26;;;;;;;14.10;12.43;;;;;;;;;;5078865;28;20696;-63
2023/06/22 01:01:52;;;;;;;15.83;11.43;;;;;;;;;;5077722;28;20198;-63
2023/06/22 01:04:18;;;;;;;15.57;11.87;;;;;;;;;;5060298;28;20186;-63
2023/06/22 01:07:13;;;;;;;12.93;11.60;;;;;;;;;;5078332;28;20651;-63
2023/06/22 01:09:45;;;;;;;13.27;11.63;;;;;;;;;;5048412;28;20193;-63
2023/06/22 01:12:11;;;;;;;16.73;11.43;;;;;;;;;;5078207;28;20202;-63
2023/06/22 01:14:37;;;;;;;14.57;11.87;;;;;;;;;;5060188;28;20210;-63
2023/06/22 01:17:04;;;;;;;13.90;11.60;;;;;;;;;;5078234;28;20174;-63
2023/06/22 01:19:46;;;;;;;12.33;11.00;;;;;;;;;;5078390;28;20177;-63
2023/06/22 01:22:16;;;;;;;13.20;11.70;;;;;;;;;;5078292;28;20214;-63
2023/06/22 01:24:41;;;;;;;14.23;12.67;;;;;;;;;;5078220;28;20217;-63
2023/06/22 01:27:17;;;;;;;18.03;12.67;;;;;;;;;;5077860;28;20201;-64
2023/06/22 01:29:43;;;;;;;14.93;12.97;;;;;;;;;;5077866;28;20184;-64
2023/06/22 01:32:11;;;;;;;16.00;12.57;;;;;;;;;;5078012;28;20193;-63
2023/06/22 01:34:39;;;;;;;14.07;12.30;;;;;;;;;;5077906;28;20240;-63
2023/06/22 01:37:06;;;;;;;14.40;12.87;;;;;;;;;;5077991;28;20173;-64
2023/06/22 01:39:32;;;;;;;15.53;12.57;;;;;;;;;;5060124;28;20178;-64
2023/06/22 01:41:59;;;;;;;16.97;12.77;;;;;;;;;;5059627;28;20741;-63
2023/06/22 01:44:26;;;;;;;16.37;12.57;;;;;;;;;;5077962;28;20212;-65
2023/06/22 01:46:52;;;;;;;14.43;12.70;;;;;;;;;;5076457;28;20184;-64
2023/06/22 01:49:18;;;;;;;15.07;13.03;;;;;;;;;;5076287;28;20212;-63
2023/06/22 01:51:44;;;;;;;15.27;13.63;;;;;;;;;;5075890;28;20221;-64
2023/06/22 01:54:10;;;;;;;16.23;13.83;;;;;;;;;;5058773;28;20251;-63
2023/06/22 01:56:36;;;;;;;15.77;14.10;;;;;;;;;;5077124;28;20643;-64
2023/06/22 01:59:18;;;;;;;15.17;12.87;;;;;;;;;;5077402;28;20170;-64
2023/06/22 02:01:46;;;;;;;16.13;14.23;;;;;;;;;;5059920;28;20614;-63
2023/06/22 02:04:14;;;;;;;17.03;14.67;;;;;;;;;;5077652;28;20182;-63
2023/06/22 02:06:42;;;;;;;15.30;13.73;;;;;;;;;;5078352;28;20170;-64
2023/06/22 02:09:12;;;;;;;19.90;15.20;;;;;;;;;;5077716;28;20174;-64
2023/06/22 02:11:40;;;;;;;20.50;15.63;;;;;;;;;;5077054;28;20206;-63
2023/06/22 02:14:07;;;;;;;19.20;15.10;;;;;;;;;;5076882;28;20597;-64
2023/06/22 02:16:33;;;;;;;17.57;15.03;;;;;;;;;;5076568;28;20212;-64
2023/06/22 02:19:02;;;;;;;17.63;15.37;;;;;;;;;;5076128;28;20173;-64
2023/06/22 02:21:29;;;;;;;16.53;14.40;;;;;;;;;;5076009;28;20190;-64
2023/06/22 02:23:55;;;;;;;17.83;15.93;;;;;;;;;;5076942;28;20174;-64
2023/06/22 02:26:21;;;;;;;17.87;14.67;;;;;;;;;;5076306;28;20173;-63
2023/06/22 02:28:47;;;;;;;19.07;15.00;;;;;;;;;;5076802;28;20691;-63
2023/06/22 02:31:13;;;;;;;17.03;15.30;;;;;;;;;;5077062;28;20213;-63
2023/06/22 02:33:39;;;;;;;18.47;15.93;;;;;;;;;;5076872;28;20181;-64
2023/06/22 02:36:09;;;;;;;20.13;16.33;;;;;;;;;;5076619;28;20212;-63
2023/06/22 02:38:36;;;;;;;19.60;17.20;;;;;;;;;;5076753;28;20178;-63
2023/06/22 02:41:02;;;;;;;17.50;15.80;;;;;;;;;;5076815;28;20193;-64
2023/06/22 02:43:28;;;;;;;19.87;15.90;;;;;;;;;;5077327;28;20185;-64
2023/06/22 02:45:54;;;;;;;18.57;16.10;;;;;;;;;;5077363;28;20250;-63
2023/06/22 02:48:20;;;;;;;18.77;16.77;;;;;;;;;;5074689;28;20209;-65
2023/06/22 02:50:46;;;;;;;18.73;16.63;;;;;;;;;;5073276;28;20220;-64
2023/06/22 02:53:12;;;;;;;18.30;16.10;;;;;;;;;;5073465;28;20186;-65
2023/06/22 02:55:39;;;;;;;20.00;17.07;;;;;;;;;;5073308;28;20228;-65
2023/06/22 02:58:05;;;;;;;19.20;16.30;;;;;;;;;;5055438;28;20181;-65
2023/06/22 03:00:31;;;;;;;19.13;16.47;;;;;;;;;;5073658;28;20189;-65
2023/06/22 03:02:58;;;;;;;19.53;16.10;;;;;;;;;;5073716;28;20533;-65
2023/06/22 03:05:24;;;;;;;18.73;16.60;;;;;;;;;;5073708;28;20193;-66
2023/06/22 03:07:50;;;;;;;21.13;16.73;;;;;;;;;;5073630;28;20242;-67
2023/06/22 03:10:17;;;;;;;19.53;16.93;;;;;;;;;;5072659;28;20197;-65
2023/06/22 03:12:43;;;;;;;18.93;15.77;;;;;;;;;;5073246;28;20185;-65
2023/06/22 03:15:10;;;;;;;18.80;16.67;;;;;;;;;;5073379;28;20568;-68
2023/06/22 03:17:38;;;;;;;19.33;16.07;;;;;;;;;;5073530;28;20244;-64
2023/06/22 03:20:09;;;;;;;18.53;16.53;;;;;;;;;;5073079;28;20177;-65
2023/06/22 03:22:39;;;;;;;19.00;16.33;;;;;;;;;;5073336;28;20162;-64
2023/06/22 03:25:10;;;;;;;21.83;17.23;;;;;;;;;;5072968;28;20613;-65
2023/06/22 03:27:37;;;;;;;19.47;17.33;;;;;;;;;;5073399;28;20162;-65
2023/06/22 03:30:03;;;;;;;21.13;17.43;;;;;;;;;;5073373;28;20178;-63
2023/06/22 03:32:29;;;;;;;18.87;16.93;;;;;;;;;;5073592;28;20188;-62
2023/06/22 03:34:58;;;;;;;20.20;18.13;;;;;;;;;;5072947;28;20201;-66
2023/06/22 03:37:24;;;;;;;22.07;18.47;;;;;;;;;;5073593;28;20169;-66
2023/06/22 03:39:50;;;;;;;19.70;17.23;;;;;;;;;;5073715;28;20174;-68
2023/06/22 03:42:16;;;;;;;19.80;17.60;;;;;;;;;;5073059;28;20254;-65
2023/06/22 03:44:42;;;;;;;20.20;18.00;;;;;;;;;;5073006;28;20185;-65
2023/06/22 03:47:09;;;;;;;19.17;17.17;;;;;;;;;;5072856;28;20185;-66
2023/06/22 03:49:35;;;;;;;20.77;18.63;;;;;;;;;;5073208;28;20173;-66
2023/06/22 03:52:04;;;;;;;19.67;17.67;;;;;;;;;;5073398;28;20217;-67
2023/06/22 03:54:30;;;;;;;19.60;17.47;;;;;;;;;;5055024;28;20208;-64
2023/06/22 03:56:59;;;;;;;19.70;17.80;;;;;;;;;;5072962;28;20181;-64
2023/06/22 03:59:25;;;;;;;19.63;17.77;;;;;;;;;;5054997;28;20182;-63
2023/06/22 04:01:51;;;;;;;19.83;17.87;;;;;;;;;;5072752;28;20201;-64
2023/06/22 04:04:20;;;;;;;21.60;18.83;;;;;;;;;;5072839;28;20597;-64
2023/06/22 04:06:47;;;;;;;20.63;17.83;;;;;;;;;;5054749;28;20182;-63
2023/06/22 04:09:13;;;;;;;21.00;18.90;;;;;;;;;;5072721;28;20212;-63
2023/06/22 04:11:38;;;;;;;21.23;18.13;;;;;;;;;;5073123;28;20221;-64
2023/06/22 04:14:05;;;;;;;22.27;19.13;;;;;;;;;;5072539;28;20586;-64
2023/06/22 04:16:31;;;;;;;22.83;18.40;;;;;;;;;;5072715;28;20173;-65
2023/06/22 04:18:57;;;;;;;20.33;18.23;;;;;;;;;;5072860;28;20177;-64
2023/06/22 04:21:23;;;;;;;19.93;17.93;;;;;;;;;;5072614;28;20194;-64
2023/06/22 04:23:49;;;;;;;19.87;17.87;;;;;;;;;;5076103;28;20191;-64
2023/06/22 04:26:15;;;;;;;20.93;18.83;;;;;;;;;;5076468;28;20182;-65
2023/06/22 04:28:41;;;;;;;22.95;20.50;;;;;;;;;;5075145;28;20384;-65
2023/06/22 04:31:07;;;;;;;21.77;19.67;;;;;;;;;;5075392;28;20834;-65
2023/06/22 04:33:33;;;;;;;22.83;20.33;;;;;;;;;;5075116;28;20380;-65
2023/06/22 04:36:03;;;;;;;22.60;20.20;;;;;;;;;;5075366;28;20443;-65
2023/06/22 04:38:32;;;;;;;22.33;20.10;;;;;;;;;;5075331;28;20372;-65
2023/06/22 04:41:00;;;;;;;23.20;20.90;;;;;;;;;;5075014;28;20404;-65
2023/06/22 04:43:30;;;;;;;21.90;19.70;;;;;;;;;;5075440;28;20375;-65
2023/06/22 04:45:56;;;;;;;22.33;20.02;;;;;;;;;;5074883;28;20731;-64
2023/06/22 04:48:22;;;;;;;22.97;19.03;;;;;;;;;;5075947;28;20184;-65
2023/06/22 04:50:47;;;;;;;21.53;19.10;;;;;;;;;;5075704;28;20683;-65
2023/06/22 04:53:13;;;;;;;22.80;19.33;;;;;;;;;;5076112;28;20181;-65
2023/06/22 04:55:45;;;;;;;21.53;19.33;;;;;;;;;;5100362;22;20229;-67
2023/06/22 04:58:12;;;;;;;23.23;20.85;;;;;;;;;;5053303;28;20432;-67
2023/06/22 05:00:38;;;;;;;23.25;20.95;;;;;;;;;;5055482;28;20802;-67
2023/06/22 05:03:06;;;;;;;23.17;20.88;;;;;;;;;;5070276;28;20377;-67
2023/06/22 05:05:32;;;;;;;22.90;20.50;;;;;;;;;;5069991;28;20760;-67
2023/06/22 05:08:01;;;;;;;22.63;20.42;;;;;;;;;;5055054;28;20390;-67
2023/06/22 05:10:27;;;;;;;22.50;20.17;;;;;;;;;;5053350;28;20386;-67
2023/06/22 05:12:53;;;;;;;22.88;20.58;;;;;;;;;;5054456;28;20419;-67
2023/06/22 05:15:19;;;;;;;22.27;19.98;;;;;;;;;;5054963;28;20864;-67
2023/06/22 05:17:45;;;;;;;22.27;19.85;;;;;;;;;;5054378;28;20743;-68
2023/06/22 05:20:12;;;;;;;22.23;19.55;;;;;;;;;;5052952;28;20390;-66
2023/06/22 05:22:38;;;;;;;24.92;19.27;;;;;;;;;;5054149;28;20385;-68
2023/06/22 05:25:06;;;;;;;20.95;18.80;;;;;;;;;;5052902;28;20377;-66
2023/06/22 05:27:32;;;;;;;21.25;18.63;;;;;;;;;;5053979;28;20385;-66
2023/06/22 05:29:58;;;;;;;22.00;19.75;;;;;;;;;;5052968;28;20421;-67
2023/06/22 05:32:23;;;;;;;20.67;18.00;;;;;;;;;;5054061;28;20477;-67
2023/06/22 05:34:49;;;;;;;20.63;18.43;;;;;;;;;;5053564;28;20491;-66
2023/06/22 05:37:15;;;;;;;22.48;18.42;;;;;;;;;;5052581;28;20382;-67
2023/06/22 05:39:41;;;;;;;21.48;17.83;;;;;;;;;;5052495;28;20380;-66
2023/06/22 05:42:08;;;;;;;21.08;17.98;;;;;;;;;;5053985;28;20460;-67
2023/06/22 05:44:34;;;;;;;25.05;18.52;;;;;;;;;;5053740;28;20381;-66
2023/06/22 05:47:00;;;;;;;21.23;17.95;;;;;;;;;;5053528;28;20378;-67
2023/06/22 05:49:32;;;;;;;20.35;18.38;;;;;;;;;;5053624;28;20452;-66
2023/06/22 05:51:58;;;;;;;19.60;17.60;;;;;;;;;;5053625;28;20741;-68
2023/06/22 05:54:24;;;;;;;20.38;18.45;;;;;;;;;;5053424;28;20413;-68
2023/06/22 05:56:50;;;;;;;21.95;18.25;;;;;;;;;;5053258;28;20401;-66
2023/06/22 05:59:16;;;;;;;41.67;20.23;;;;;;;;;;5052228;28;20381;-66
2023/06/22 06:01:42;;;;;;;21.43;18.97;;;;;;;;;;5052232;28;20389;-67
2023/06/22 06:04:08;;;;;;;20.27;18.17;;;;;;;;;;5053883;28;20412;-67
2023/06/22 06:06:36;;;;;;;20.90;18.63;;;;;;;;;;5052000;28;20440;-67
2023/06/22 06:09:03;;;;;;;22.55;19.42;;;;;;;;;;5052064;28;20439;-67
2023/06/22 06:11:28;;;;;;;30.60;19.83;;;;;;;;;;5053479;28;20865;-66
2023/06/22 06:13:55;;;;;;;22.13;19.40;;;;;;;;;;5053319;28;20420;-68
2023/06/22 06:16:21;;;;;;;22.20;19.23;;;;;;;;;;5053312;28;20493;-66
2023/06/22 06:18:48;;;;;;;20.60;18.38;;;;;;;;;;5053161;28;20460;-67
2023/06/22 06:21:14;;;;;;;24.27;18.27;;;;;;;;;;5051822;28;20392;-67
2023/06/22 06:23:40;;;;;;;23.80;18.27;;;;;;;;;;5053258;28;20382;-67
2023/06/22 06:26:06;;;;;;;23.27;18.25;;;;;;;;;;5053053;28;20385;-67
2023/06/22 06:28:33;;;;;;;20.67;17.77;;;;;;;;;;5053195;28;20413;-67
2023/06/22 06:30:59;;;;;;;23.10;18.92;;;;;;;;;;5051926;28;20443;-67
2023/06/22 06:33:25;;;;;;;21.33;18.27;;;;;;;;;;5053326;28;20385;-67
2023/06/22 06:35:51;;;;;;;21.70;18.10;;;;;;;;;;5052032;28;20775;-67
2023/06/22 06:38:17;;;;;;;21.88;18.25;;;;;;;;;;5053401;28;20420;-67
2023/06/22 06:40:44;;;;;;;20.25;18.13;;;;;;;;;;5053180;28;20400;-67
2023/06/22 06:43:10;;;;;;;18.83;16.20;;;;;;;;;;5054206;28;20220;-67
2023/06/22 06:45:36;;;;;;;22.90;15.67;;;;;;;;;;5052973;28;20186;-67
2023/06/22 06:48:02;;;;;;;19.60;16.60;;;;;;;;;;5054007;28;20236;-66
2023/06/22 06:50:28;;;;;;;21.17;16.77;;;;;;;;;;5054534;28;20182;-67
2023/06/22 06:52:56;;;;;;;17.77;16.07;;;;;;;;;;5053992;28;20266;-67
2023/06/22 06:55:25;;;;;;;20.70;18.52;;;;;;;;;;5052799;28;20398;-66
2023/06/22 06:57:52;;;;;;;18.60;16.70;;;;;;;;;;5052318;28;20202;-66
2023/06/22 07:00:18;;;;;;;20.23;16.10;;;;;;;;;;5053599;28;20194;-67
2023/06/22 07:02:45;;;;;;;22.40;16.70;;;;;;;;;;5054151;28;20183;-66
2023/06/22 07:05:12;;;;;;;21.97;16.00;;;;;;;;;;5053714;28;20178;-66
2023/06/22 07:07:38;;;;;;;18.87;16.97;;;;;;;;;;5054112;28;20654;-67
2023/06/22 07:10:05;;;;;;;21.10;18.83;;;;;;;;;;5051142;28;20401;-67
2023/06/22 07:12:31;;;;;;;21.13;18.92;;;;;;;;;;5051290;28;20386;-67
2023/06/22 07:15:12;;;;;;;20.07;17.97;;;;;;;;;;5053254;28;20209;-67
2023/06/22 07:17:40;;;;;;;22.13;18.30;;;;;;;;;;5054105;28;20186;-67
2023/06/22 07:20:09;;;;;;;21.33;19.13;;;;;;;;;;5053974;28;20236;-67
2023/06/22 07:22:35;;;;;;;22.67;18.20;;;;;;;;;;5053244;28;20253;-66
2023/06/22 07:25:04;;;;;;;21.30;17.93;;;;;;;;;;5053261;28;20254;-67
2023/06/22 07:27:35;;;;;;;21.57;17.00;;;;;;;;;;5051789;28;20202;-67
2023/06/22 07:30:01;;;;;;;19.20;16.77;;;;;;;;;;5053449;28;20159;-67
2023/06/22 07:32:28;;;;;;;18.47;16.63;;;;;;;;;;5053229;28;20543;-66
2023/06/22 07:34:54;;;;;;;22.03;17.80;;;;;;;;;;5052783;28;20202;-66
2023/06/22 07:37:20;;;;;;;18.03;16.13;;;;;;;;;;5052914;28;20210;-66
2023/06/22 07:39:46;;;;;;;18.77;16.93;;;;;;;;;;5051637;28;20206;-66
2023/06/22 07:42:12;;;;;;;26.20;17.13;;;;;;;;;;5051562;28;20189;-66
2023/06/22 07:44:38;;;;;;;20.60;17.60;;;;;;;;;;5052830;28;20187;-67
2023/06/22 07:47:04;;;;;;;21.23;17.90;;;;;;;;;;5052754;28;20198;-66
2023/06/22 07:49:30;;;;;;;21.77;17.87;;;;;;;;;;5053264;28;20211;-67
2023/06/22 07:51:56;;;;;;;22.87;18.87;;;;;;;;;;5051908;28;20279;-66
2023/06/22 07:54:22;;;;;;;22.87;20.10;;;;;;;;;;5053056;28;20256;-66
2023/06/22 07:56:48;;;;;;;21.37;19.07;;;;;;;;;;5054304;28;20284;-66
2023/06/22 07:59:14;;;;;;;21.63;19.47;;;;;;;;;;5055540;28;20243;-66
2023/06/22 08:01:40;;;;;;;24.37;19.23;;;;;;;;;;5057127;28;20202;-67
2023/06/22 08:04:06;;;;;;;21.77;18.90;;;;;;;;;;5056932;28;20174;-67
2023/06/22 08:06:32;;;;;;;26.70;21.17;;;;;;;;;;5058024;28;20198;-67
2023/06/22 08:08:58;;;;;;;22.50;20.17;;;;;;;;;;5056613;28;20186;-66
2023/06/22 08:11:25;;;;;;;21.73;19.43;;;;;;;;;;5058098;28;20729;-67
2023/06/22 08:13:51;;;;;;;29.43;20.53;;;;;;;;;;5058116;28;20170;-67
2023/06/22 08:16:17;;;;;;;23.47;20.70;;;;;;;;;;5058070;28;20210;-67
2023/06/22 08:18:43;;;;;;;25.93;20.47;;;;;;;;;;5058393;28;20663;-67
2023/06/22 08:21:10;;;;;;;26.53;20.87;;;;;;;;;;5057331;28;20205;-67
2023/06/22 08:23:37;;;;;;;27.27;22.67;;;;;;;;;;5056294;28;20175;-67
2023/06/22 08:26:03;;;;;;;23.93;21.43;;;;;;;;;;5056976;28;20267;-66
2023/06/22 08:28:28;;;;;;;29.33;22.30;;;;;;;;;;5054986;28;20179;-67
2023/06/22 08:30:55;;;;;;;24.47;21.87;;;;;;;;;;5056175;28;20185;-66
2023/06/22 08:33:24;;;;;;;22.87;20.47;;;;;;;;;;5056172;28;20186;-68
2023/06/22 08:35:50;;;;;;;22.67;19.77;;;;;;;;;;5056259;28;20233;-67
2023/06/22 08:38:18;;;;;;;22.07;19.67;;;;;;;;;;5056578;28;20595;-68
2023/06/22 08:40:44;;;;;;;24.17;21.53;;;;;;;;;;5054664;28;20560;-67
2023/06/22 08:43:10;;;;;;;25.30;22.60;;;;;;;;;;5056032;28;20249;-66
2023/06/22 08:45:36;;;;;;;26.43;21.33;;;;;;;;;;5056057;28;20206;-66
2023/06/22 08:48:02;;;;;;;26.57;22.37;;;;;;;;;;5055813;28;20185;-66
2023/06/22 08:50:28;;;;;;;25.47;22.67;;;;;;;;;;5056031;28;20236;-66
2023/06/22 08:52:54;;;;;;;25.73;23.00;;;;;;;;;;5054394;28;20182;-67
2023/06/22 08:55:20;;;;;;;26.50;23.60;;;;;;;;;;5055534;28;20202;-67
2023/06/22 08:57:46;;;;;;;26.63;22.07;;;;;;;;;;5056473;28;20210;-68
2023/06/22 09:00:17;;;;;;;26.83;23.13;;;;;;;;;;5054328;28;20570;-66
2023/06/22 09:02:43;;;;;;;26.83;23.40;;;;;;;;;;5055735;28;20155;-65
2023/06/22 09:05:09;;;;;;;25.07;22.57;;;;;;;;;;5055620;28;20178;-66
2023/06/22 09:07:35;;;;;;;25.20;22.70;;;;;;;;;;5054921;28;20199;-65
2023/06/22 09:10:01;;;;;;;25.67;22.93;;;;;;;;;;5055224;28;20183;-65
2023/06/22 09:12:30;;;;;;;25.37;22.67;;;;;;;;;;5055339;28;20232;-65
2023/06/22 09:14:56;;;;;;;28.10;23.20;;;;;;;;;;5055242;28;20202;-65
2023/06/22 09:17:22;;;;;;;26.37;23.53;;;;;;;;;;5053783;28;20285;-65
2023/06/22 09:19:48;;;;;;;27.37;24.47;;;;;;;;;;5055599;28;20181;-66
2023/06/22 09:22:14;;;;;;;25.20;22.80;;;;;;;;;;5055169;28;20233;-65
2023/06/22 09:24:40;;;;;;;27.17;23.83;;;;;;;;;;5055105;28;20182;-66
2023/06/22 09:27:06;;;;;;;25.33;22.63;;;;;;;;;;5055296;28;20198;-66
2023/06/22 09:29:33;;;;;;;26.33;23.47;;;;;;;;;;5055295;28;20259;-66
2023/06/22 09:31:59;;;;;;;25.73;23.20;;;;;;;;;;5053716;28;20186;-65
2023/06/22 09:34:25;;;;;;;26.17;23.43;;;;;;;;;;5053590;28;20186;-66
2023/06/22 09:36:51;;;;;;;25.17;22.47;;;;;;;;;;5054812;28;20206;-65
2023/06/22 09:39:18;;;;;;;25.73;23.13;;;;;;;;;;5055097;28;20189;-66
2023/06/22 09:41:44;;;;;;;25.50;22.83;;;;;;;;;;5053540;28;20186;-66
2023/06/22 09:44:10;;;;;;;26.73;23.60;;;;;;;;;;5054759;28;20186;-66
2023/06/22 09:46:36;;;;;;;25.40;22.13;;;;;;;;;;5053443;28;20206;-66
2023/06/22 09:49:02;;;;;;;24.33;21.90;;;;;;;;;;5054736;28;20178;-66
2023/06/22 09:51:28;;;;;;;25.33;22.93;;;;;;;;;;5054760;28;20178;-66
2023/06/22 09:53:54;;;;;;;24.80;22.30;;;;;;;;;;5054918;28;20654;-66
2023/06/22 09:56:20;;;;;;;;;;;;;;;;;;5054771;28;20029;-67
2023/06/22 09:58:46;;;;;;;;;;;;;;;;;;5055346;28;19991;-66
2023/06/22 10:01:14;;;;;;;23.47;20.97;;;;;;;;;;5054562;28;20184;-66
2023/06/22 10:03:41;;;;;;;26.10;23.50;;;;;;;;;;5053308;28;20381;-66
2023/06/22 10:06:07;;;;;;;26.90;24.30;;;;;;;;;;5053281;28;20938;-67
2023/06/22 10:08:34;;;;;;;27.25;24.75;;;;;;;;;;5053530;28;20383;-65
2023/06/22 10:11:00;;;;;;;27.55;24.85;;;;;;;;;;5053188;28;20477;-67
2023/06/22 10:13:25;;;;;;;26.25;23.70;;;;;;;;;;5051847;28;20413;-66
2023/06/22 10:15:52;;;;;;;27.08;24.20;;;;;;;;;;5053414;28;21009;-65
2023/06/22 10:18:21;;;;;;;25.93;23.53;;;;;;;;;;5053231;28;20740;-66
2023/06/22 10:20:54;;;;;;;25.83;23.15;;;;;;;;;;5053554;28;20435;-66
2023/06/22 10:23:20;;;;;;;25.17;22.60;;;;;;;;;;5054421;28;20169;-67
2023/06/22 10:25:46;;;;;;;24.20;21.87;;;;;;;;;;5053857;28;20183;-66
2023/06/22 10:28:12;;;;;;;25.83;22.37;;;;;;;;;;5053815;28;20182;-66
2023/06/22 10:30:41;;;;;;;23.13;20.83;;;;;;;;;;5052424;28;20237;-67
2023/06/22 10:33:07;;;;;;;27.33;22.23;;;;;;;;;;5052488;28;20187;-67
2023/06/22 10:35:33;;;;;;;24.33;20.47;;;;;;;;;;5053634;28;20264;-66
2023/06/22 10:37:59;;;;;;;22.97;20.90;;;;;;;;;;5052668;28;20645;-67
2023/06/22 10:40:25;;;;;;;23.70;21.27;;;;;;;;;;5053621;28;20217;-66
2023/06/22 10:42:51;;;;;;;25.43;20.03;;;;;;;;;;5053553;28;20174;-66
2023/06/22 10:45:17;;;;;;;23.57;21.17;;;;;;;;;;5052551;28;20332;-66
2023/06/22 10:47:43;;;;;;;23.37;20.77;;;;;;;;;;5053527;28;20702;-67
2023/06/22 10:50:10;;;;;;;23.23;20.83;;;;;;;;;;5053544;28;20179;-67
2023/06/22 10:52:36;;;;;;;23.17;21.00;;;;;;;;;;5053552;28;20198;-66
2023/06/22 10:55:01;;;;;;;21.50;19.17;;;;;;;;;;5053693;28;20193;-67
2023/06/22 10:57:27;;;;;;;25.10;21.70;;;;;;;;;;5085760;22;20257;-64
2023/06/22 10:59:53;;;;;;;22.67;19.63;;;;;;;;;;5072694;28;20178;-64
2023/06/22 11:02:19;;;;;;;26.83;21.13;;;;;;;;;;5074004;28;20184;-66
2023/06/22 11:04:46;;;;;;;21.93;19.80;;;;;;;;;;5074022;28;20181;-65
2023/06/22 11:07:12;;;;;;;24.07;20.47;;;;;;;;;;5073859;28;20189;-65
2023/06/22 11:09:39;;;;;;;22.60;20.30;;;;;;;;;;5073594;28;20185;-65
2023/06/22 11:12:05;;;;;;;22.87;20.30;;;;;;;;;;5073654;28;20178;-65
2023/06/22 11:14:31;;;;;;;24.53;21.13;;;;;;;;;;5073394;28;20178;-65
2023/06/22 11:16:57;;;;;;;25.97;19.60;;;;;;;;;;5073648;28;20194;-65
2023/06/22 11:19:24;;;;;;;22.37;19.93;;;;;;;;;;5073414;28;20177;-65
2023/06/22 11:21:50;;;;;;;29.73;20.73;;;;;;;;;;5073766;28;20658;-65
2023/06/22 11:24:16;;;;;;;23.40;20.90;;;;;;;;;;5073604;28;20384;-64
2023/06/22 11:26:43;;;;;;;24.47;20.80;;;;;;;;;;5072089;28;20265;-66
2023/06/22 11:29:09;;;;;;;25.23;22.60;;;;;;;;;;5073529;28;20191;-67
2023/06/22 11:31:35;;;;;;;27.53;24.47;;;;;;;;;;5071747;28;20182;-66
2023/06/22 11:34:01;;;;;;;29.67;26.70;;;;;;;;;;5073530;28;20550;-66
2023/06/22 11:36:28;;;;;;;30.50;27.30;;;;;;;;;;5073549;28;20197;-67
2023/06/22 11:38:54;;;;;;;31.83;27.37;;;;;;;;;;5073726;28;20196;-69
2023/06/22 11:41:21;;;;;;;35.93;30.57;;;;;;;;;;5073635;28;20532;-67
2023/06/22 11:43:47;;;;;;;40.47;33.10;;;;;;;;;;5073879;28;20612;-66
2023/06/22 11:46:13;;;;;;;39.37;34.83;;;;;;;;;;5073481;28;20675;-66
2023/06/22 11:48:39;;;;;;;44.40;35.67;;;;;;;;;;5072032;28;20229;-65
2023/06/22 11:51:06;;;;;;;46.00;36.73;;;;;;;;;;5073402;28;20185;-65
2023/06/22 11:53:32;;;;;;;41.00;36.63;;;;;;;;;;5073133;28;20279;-65
2023/06/22 11:55:58;;;;;;;43.93;37.87;;;;;;;;;;5072944;28;20327;-65
2023/06/22 11:58:24;;;;;;;45.17;39.47;;;;;;;;;;5071764;28;20216;-65
2023/06/22 12:00:51;;;;;;;46.00;39.80;;;;;;;;;;5071684;28;20174;-65
2023/06/22 12:03:17;;;;;;;52.60;42.90;;;;;;;;;;5071842;28;20173;-64
2023/06/22 12:05:43;;;;;;;49.93;44.40;;;;;;;;;;5071791;28;20177;-65
2023/06/22 12:08:09;;;;;;;51.70;46.10;;;;;;;;;;5071595;28;20202;-65
2023/06/22 12:10:35;;;;;;;55.63;47.30;;;;;;;;;;5073145;28;20178;-65
2023/06/22 12:13:01;;;;;;;50.70;45.23;;;;;;;;;;5073310;28;20174;-65
2023/06/22 12:15:27;;;;;;;51.03;45.60;;;;;;;;;;5072924;28;20197;-65
2023/06/22 12:17:53;;;;;;;50.80;45.17;;;;;;;;;;5071575;28;20575;-65
2023/06/22 12:20:19;;;;;;;53.13;46.23;;;;;;;;;;5071736;28;20177;-64
2023/06/22 12:22:45;;;;;;;52.07;46.43;;;;;;;;;;5072882;28;20181;-65
2023/06/22 12:25:12;;;;;;;53.40;45.30;;;;;;;;;;5073028;28;20177;-64
2023/06/22 12:27:38;;;;;;;55.97;46.93;;;;;;;;;;5072923;28;20422;-65
2023/06/22 12:30:04;;;;;;;47.53;42.57;;;;;;;;;;5073404;28;20287;-65
2023/06/22 12:32:30;;;;;;;47.37;42.47;;;;;;;;;;5071581;28;20189;-65
2023/06/22 12:34:56;;;;;;;45.43;40.73;;;;;;;;;;5072693;28;20208;-65
2023/06/22 12:37:23;;;;;;;43.03;38.73;;;;;;;;;;5072610;28;20280;-65
2023/06/22 12:39:49;;;;;;;40.60;36.43;;;;;;;;;;5073034;28;20185;-65
2023/06/22 12:42:15;;;;;;;37.43;33.77;;;;;;;;;;5072659;28;20590;-65
2023/06/22 12:44:41;;;;;;;38.37;34.57;;;;;;;;;;5074422;28;20627;-65
2023/06/22 12:47:11;;;;;;;36.63;32.70;;;;;;;;;;5074670;28;20200;-66
2023/06/22 12:49:36;;;;;;;36.03;32.53;;;;;;;;;;5076665;28;20659;-67
2023/06/22 12:52:03;;;;;;;34.97;31.33;;;;;;;;;;5075679;28;20193;-66
2023/06/22 12:54:29;;;;;;;35.67;31.83;;;;;;;;;;5076751;28;20174;-66
2023/06/22 12:56:55;;;;;;;33.70;30.43;;;;;;;;;;5075955;28;20217;-66
2023/06/22 12:59:21;;;;;;;36.17;32.63;;;;;;;;;;5076252;28;20166;-65
2023/06/22 13:01:47;;;;;;;37.00;33.57;;;;;;;;;;5076000;28;20635;-65
2023/06/22 13:04:15;;;;;;;37.73;34.07;;;;;;;;;;5074740;28;20609;-65
2023/06/22 13:06:47;;;;;;;35.60;32.10;;;;;;;;;;5074623;28;20185;-65
2023/06/22 13:09:13;;;;;;;36.27;32.67;;;;;;;;;;5076050;28;20166;-66
2023/06/22 13:11:39;;;;;;;37.57;33.87;;;;;;;;;;5074415;28;20182;-65
2023/06/22 13:14:05;;;;;;;38.03;34.20;;;;;;;;;;5074557;28;20178;-66
2023/06/22 13:16:31;;;;;;;39.37;35.47;;;;;;;;;;5075775;28;20212;-63
2023/06/22 13:18:57;;;;;;;37.33;33.73;;;;;;;;;;5075559;28;20182;-64
2023/06/22 13:21:23;;;;;;;37.93;34.23;;;;;;;;;;5074266;28;20261;-64
2023/06/22 13:23:49;;;;;;;39.57;35.40;;;;;;;;;;5075392;28;20294;-67
2023/06/22 13:26:14;;;;;;;39.83;35.60;;;;;;;;;;5075314;28;20252;-65
2023/06/22 13:28:40;;;;;;;41.77;37.53;;;;;;;;;;5073916;28;20205;-67
2023/06/22 13:31:06;;;;;;;43.07;38.63;;;;;;;;;;5075549;28;20189;-65
2023/06/22 13:33:32;;;;;;;46.00;41.27;;;;;;;;;;5074155;28;20192;-65
2023/06/22 13:35:58;;;;;;;46.37;41.70;;;;;;;;;;5074981;28;20276;-64
2023/06/22 13:38:24;;;;;;;45.67;40.93;;;;;;;;;;5075704;28;20570;-65
2023/06/22 13:40:50;;;;;;;44.53;39.73;;;;;;;;;;5073713;28;20178;-65
2023/06/22 13:43:17;;;;;;;50.07;42.53;;;;;;;;;;5074425;28;20189;-71
2023/06/22 13:45:43;;;;;;;45.87;41.13;;;;;;;;;;5073878;28;20268;-66
2023/06/22 13:48:09;;;;;;;47.03;42.13;;;;;;;;;;5075149;28;20562;-67
2023/06/22 13:50:35;;;;;;;39.93;35.67;;;;;;;;;;5075891;28;20188;-65
2023/06/22 13:53:01;;;;;;;40.00;35.77;;;;;;;;;;5075463;28;20182;-66
2023/06/22 13:55:27;;;;;;;37.53;33.60;;;;;;;;;;5074493;28;20201;-67
2023/06/22 13:57:53;;;;;;;40.60;36.20;;;;;;;;;;5075073;28;20217;-66
2023/06/22 14:00:19;;;;;;;37.40;33.87;;;;;;;;;;5074997;28;20231;-66
2023/06/22 14:02:45;;;;;;;35.97;32.47;;;;;;;;;;5073705;28;20268;-66
2023/06/22 14:05:11;;;;;;;36.13;32.50;;;;;;;;;;5075212;28;20220;-65
2023/06/22 14:07:37;;;;;;;38.30;34.57;;;;;;;;;;5074573;28;20198;-65
2023/06/22 14:10:04;;;;;;;36.67;33.07;;;;;;;;;;5074394;28;20253;-65
2023/06/22 14:12:30;;;;;;;33.40;30.03;;;;;;;;;;5074457;28;20182;-65
2023/06/22 14:14:57;;;;;;;35.13;31.57;;;;;;;;;;5074276;28;20204;-65